Wilmot Flat, New Hampshire
Current Conditions -  °F | °C
As of 6:53 PM on Friday 19 Dec 2014 (Local Time) from KLEB Reporting Station
Overcast Overcast  
Wind Chill: 18°   Ceiling: 1700
Heat Index: 26°   Visibility: 10mi
Dew Point: 18°   Wind: 8mph
Humidity: 71%   Direction: 340°NNW
Pressure: 30.1"   Gusts: 18mph
Location:  43.4448°N, 71.9168°W
Report Text: KLEB 192353Z 34007G16KT 10SM OVC017 M03/M08 A3010 RMK AO2 SLP205 T10331078 11017 21033 53023
Loading
Personal Weather Stations






























Interactive Weather Map New forecast layout! Learn more

10-Day Weather Forecast

Advertisements
Track Severe Weather on mobile